Time;durP1;ratioP1;P1;durP2;ratioP2;P2;SDS_P1;SDS_P2;PMS_P1;PMS_P2;Temp;Humidity;BMP_temperature;BMP_pressure;BME280_temperature;BME280_humidity;BME280_pressure;Samples;Min_cycle;Max_cycle;Signal;HPM_P1;HPM_P2
2024/01/26 00:02:01;;;;;;;67.10;47.22;;;4.80;98.20;;;;;;5053788;28;20360;-64
2024/01/26 00:04:27;;;;;;;102.82;66.82;;;4.80;98.10;;;;;;5053717;28;20041;-64
2024/01/26 00:06:53;;;;;;;83.70;53.92;;;4.80;97.80;;;;;;5053783;28;20506;-66
2024/01/26 00:09:19;;;;;;;71.07;49.65;;;4.80;97.50;;;;;;5053682;28;20029;-62
2024/01/26 00:11:45;;;;;;;80.18;53.75;;;4.70;97.20;;;;;;5053936;28;20017;-67
2024/01/26 00:14:10;;;;;;;85.28;56.03;;;4.80;97.10;;;;;;5053462;28;20021;-64
2024/01/26 00:16:37;;;;;;;78.18;53.95;;;4.80;96.50;;;;;;5053626;28;20094;-66
2024/01/26 00:19:06;;;;;;;85.53;57.55;;;4.80;96.10;;;;;;5053504;28;20036;-66
2024/01/26 00:21:32;;;;;;;84.20;56.97;;;4.80;95.60;;;;;;5053431;28;20467;-66
2024/01/26 00:23:58;;;;;;;80.93;51.65;;;4.80;95.50;;;;;;5053544;28;20025;-65
2024/01/26 00:26:24;;;;;;;65.72;46.97;;;4.80;95.20;;;;;;5053503;28;20514;-66
2024/01/26 00:28:50;;;;;;;77.60;50.50;;;4.80;95.30;;;;;;5053538;28;20024;-68
2024/01/26 00:31:18;;;;;;;78.70;51.67;;;4.70;95.00;;;;;;5052245;28;20434;-66
2024/01/26 00:33:44;;;;;;;78.88;52.38;;;4.70;95.20;;;;;;5052189;28;20479;-64
2024/01/26 00:36:10;;;;;;;108.07;72.03;;;4.60;95.70;;;;;;5053318;28;20017;-63
2024/01/26 00:38:36;;;;;;;80.78;54.38;;;4.60;96.30;;;;;;5053349;28;20382;-65
2024/01/26 00:41:02;;;;;;;127.88;82.20;;;4.40;96.90;;;;;;5053196;28;20025;-64
2024/01/26 00:43:28;;;;;;;92.93;63.22;;;4.40;97.40;;;;;;5053244;28;20036;-65
2024/01/26 00:45:53;;;;;;;95.32;62.15;;;4.20;98.90;;;;;;5052053;28;20112;-64
2024/01/26 00:48:20;;;;;;;94.72;60.63;;;4.20;98.70;;;;;;5051980;28;20025;-65
2024/01/26 00:50:46;;;;;;;80.30;52.90;;;4.20;98.00;;;;;;5053169;28;20432;-66
2024/01/26 00:53:12;;;;;;;86.05;58.17;;;4.30;97.80;;;;;;5053260;28;20479;-68
2024/01/26 00:55:38;;;;;;;96.97;61.22;;;4.40;97.20;;;;;;5053386;28;20060;-64
2024/01/26 00:58:03;;;;;;;83.88;56.50;;;4.40;96.90;;;;;;5053164;28;20021;-66
2024/01/26 01:00:29;;;;;;;75.35;49.38;;;4.40;96.20;;;;;;5053138;28;20365;-64
2024/01/26 01:02:55;;;;;;;83.55;51.83;;;4.30;96.80;;;;;;5053131;28;20075;-66
2024/01/26 01:05:21;;;;;;;74.97;48.60;;;4.40;96.90;;;;;;5051523;28;20063;-64
2024/01/26 01:07:47;;;;;;;82.57;53.38;;;4.40;96.80;;;;;;5053187;28;20032;-64
2024/01/26 01:10:14;;;;;;;75.43;50.33;;;4.40;96.50;;;;;;5053178;28;20481;-62
2024/01/26 01:12:41;;;;;;;69.18;46.05;;;4.30;96.90;;;;;;5051719;28;20025;-65
2024/01/26 01:15:11;;;;;;;69.65;44.72;;;4.20;96.70;;;;;;5052834;28;20021;-61
2024/01/26 01:17:41;;;;;;;60.35;40.35;;;4.20;96.70;;;;;;5052973;28;20495;-66
2024/01/26 01:20:10;;;;;;;57.97;40.30;;;4.20;96.80;;;;;;5052831;28;20036;-62
2024/01/26 01:22:37;;;;;;;53.65;37.40;;;4.20;96.80;;;;;;5052985;28;20033;-63
2024/01/26 01:25:06;;;;;;;65.93;41.05;;;4.20;96.80;;;;;;5054636;28;20489;-62
2024/01/26 01:27:32;;;;;;;59.78;41.25;;;4.20;96.80;;;;;;5056814;28;20021;-66
2024/01/26 01:29:59;;;;;;;55.80;39.38;;;4.20;96.80;;;;;;5055553;28;20021;-67
2024/01/26 01:32:25;;;;;;;56.60;38.28;;;4.20;96.90;;;;;;5055466;28;20021;-65
2024/01/26 01:34:52;;;;;;;61.22;40.40;;;4.10;97.00;;;;;;5055338;28;20024;-66
2024/01/26 01:37:18;;;;;;;51.70;34.78;;;4.10;97.20;;;;;;5056777;28;20021;-64
2024/01/26 01:39:43;;;;;;;49.53;34.95;;;4.10;96.90;;;;;;5055324;28;20517;-65
2024/01/26 01:42:18;;;;;;;57.67;40.45;;;4.20;96.90;;;;;;5055629;28;20021;-66
2024/01/26 01:44:45;;;;;;;82.25;54.88;;;4.20;96.80;;;;;;5056544;28;20036;-64
2024/01/26 01:47:13;;;;;;;76.57;51.90;;;4.20;96.30;;;;;;5056503;28;20017;-67
2024/01/26 01:49:40;;;;;;;127.05;80.18;;;4.10;96.80;;;;;;5056486;28;20043;-64
2024/01/26 01:52:08;;;;;;;85.57;53.88;;;4.00;98.30;;;;;;5056482;28;20380;-66
2024/01/26 01:54:34;;;;;;;77.85;50.80;;;3.80;99.30;;;;;;5055050;28;20025;-64
2024/01/26 01:57:04;;;;;;;73.22;47.40;;;3.80;99.20;;;;;;5056406;28;20112;-64
2024/01/26 01:59:31;;;;;;;70.18;46.67;;;3.80;99.00;;;;;;5056245;28;20032;-65
2024/01/26 02:01:56;;;;;;;63.85;42.95;;;3.90;98.10;;;;;;5056013;28;20032;-65
2024/01/26 02:04:22;;;;;;;70.00;45.10;;;3.90;97.80;;;;;;5056151;28;20045;-64
2024/01/26 02:07:01;;;;;;;67.00;44.65;;;4.00;97.30;;;;;;5056120;28;20021;-65
2024/01/26 02:09:28;;;;;;;60.65;42.35;;;4.00;97.10;;;;;;5056067;28;20025;-66
2024/01/26 02:11:55;;;;;;;54.58;37.83;;;3.90;97.50;;;;;;5054867;28;20048;-63
2024/01/26 02:14:21;;;;;;;57.47;39.75;;;3.80;97.80;;;;;;5055951;28;20052;-63
2024/01/26 02:16:57;;;;;;;72.78;46.25;;;3.80;97.50;;;;;;5055697;28;20036;-67
2024/01/26 02:19:24;;;;;;;61.75;40.63;;;3.80;97.30;;;;;;5055930;28;20029;-63
2024/01/26 02:21:50;;;;;;;60.75;39.83;;;3.80;97.80;;;;;;5055922;28;20124;-65
2024/01/26 02:24:16;;;;;;;77.43;48.67;;;3.70;98.10;;;;;;5055793;28;20104;-64
2024/01/26 02:26:42;;;;;;;95.70;58.63;;;3.60;99.10;;;;;;5055805;28;20104;-66
2024/01/26 02:29:08;;;;;;;61.75;41.65;;;3.50;99.80;;;;;;5055818;28;20025;-64
2024/01/26 02:31:34;;;;;;;91.70;56.28;;;3.50;99.90;;;;;;5054242;28;20536;-66
2024/01/26 02:34:00;;;;;;;68.93;46.05;;;3.50;99.90;;;;;;5054706;28;20025;-64
2024/01/26 02:36:27;;;;;;;67.78;46.75;;;3.40;99.90;;;;;;5055481;28;20025;-66
2024/01/26 02:38:53;;;;;;;64.63;44.03;;;3.50;99.90;;;;;;5055372;28;20017;-66
2024/01/26 02:41:19;;;;;;;60.03;41.00;;;3.50;99.90;;;;;;5055588;28;20074;-66
2024/01/26 02:43:44;;;;;;;64.32;41.78;;;3.50;99.50;;;;;;5055554;28;20021;-66
2024/01/26 02:46:11;;;;;;;64.03;41.88;;;3.50;99.30;;;;;;5055233;28;20043;-67
2024/01/26 02:48:37;;;;;;;53.90;37.63;;;3.60;99.00;;;;;;5055443;28;20033;-66
2024/01/26 02:51:03;;;;;;;63.15;40.92;;;3.60;98.70;;;;;;5055399;28;20035;-64
2024/01/26 02:53:28;;;;;;;59.03;39.28;;;3.60;98.60;;;;;;5055477;28;20534;-63
2024/01/26 02:55:54;;;;;;;52.53;36.80;;;3.60;98.50;;;;;;5055379;28;20028;-65
2024/01/26 02:58:20;;;;;;;47.95;31.83;;;3.50;98.70;;;;;;5055136;28;20043;-66
2024/01/26 03:00:45;;;;;;;43.85;29.50;;;3.40;99.00;;;;;;5054963;28;20108;-66
2024/01/26 03:03:11;;;;;;;44.10;29.45;;;3.50;98.80;;;;;;5054834;28;20033;-66
2024/01/26 03:05:37;;;;;;;33.72;25.02;;;3.40;98.60;;;;;;5053820;28;20538;-64
2024/01/26 03:08:03;;;;;;;34.05;23.88;;;3.40;98.20;;;;;;5054960;28;20108;-62
2024/01/26 03:10:28;;;;;;;36.88;24.83;;;3.40;98.00;;;;;;5054886;28;20573;-64
2024/01/26 03:12:55;;;;;;;29.38;21.75;;;3.50;97.80;;;;;;5055132;28;20028;-66
2024/01/26 03:15:21;;;;;;;32.38;22.85;;;3.40;97.50;;;;;;5054635;28;20040;-62
2024/01/26 03:17:47;;;;;;;29.63;20.90;;;3.40;96.70;;;;;;5054722;28;20387;-63
2024/01/26 03:20:13;;;;;;;27.25;18.63;;;3.40;96.60;;;;;;5053645;28;20027;-62
2024/01/26 03:22:39;;;;;;;26.05;18.90;;;3.40;96.40;;;;;;5054718;28;20021;-67
2024/01/26 03:25:05;;;;;;;30.17;21.75;;;3.30;96.30;;;;;;5054630;28;20020;-67
2024/01/26 03:27:31;;;;;;;31.15;21.23;;;3.30;96.50;;;;;;5054654;28;20368;-66
2024/01/26 03:29:57;;;;;;;29.33;20.45;;;3.30;96.00;;;;;;5054519;28;20024;-66
2024/01/26 03:32:22;;;;;;;24.92;18.80;;;3.30;96.40;;;;;;5054520;28;20021;-64
2024/01/26 03:34:48;;;;;;;28.52;20.50;;;3.30;96.30;;;;;;5054450;28;20029;-63
2024/01/26 03:37:13;;;;;;;25.80;18.73;;;3.20;96.60;;;;;;5054511;28;20376;-63
2024/01/26 03:39:39;;;;;;;26.88;19.30;;;3.20;97.30;;;;;;5054399;28;20074;-62
2024/01/26 03:42:06;;;;;;;20.92;15.75;;;3.10;97.60;;;;;;5054264;28;20025;-62
2024/01/26 03:44:32;;;;;;;24.85;17.00;;;3.20;97.90;;;;;;5054298;28;20502;-63
2024/01/26 03:46:58;;;;;;;20.30;15.55;;;3.10;97.40;;;;;;5053862;28;20084;-63
2024/01/26 03:49:24;;;;;;;21.40;15.40;;;3.10;97.40;;;;;;5054116;28;20021;-62
2024/01/26 03:51:49;;;;;;;27.83;18.63;;;3.10;97.30;;;;;;5054195;28;20387;-64
2024/01/26 03:54:15;;;;;;;22.42;16.05;;;3.10;97.40;;;;;;5054132;28;20095;-65
2024/01/26 03:56:41;;;;;;;25.25;18.52;;;3.00;97.70;;;;;;5052799;28;20025;-64
2024/01/26 03:59:07;;;;;;;24.38;17.80;;;3.00;98.00;;;;;;5054006;28;20051;-65
2024/01/26 04:01:32;;;;;;;29.25;19.65;;;3.00;98.50;;;;;;5054028;28;20052;-64
2024/01/26 04:03:58;;;;;;;30.85;21.50;;;3.00;97.60;;;;;;5052290;28;20057;-65
2024/01/26 04:06:24;;;;;;;23.90;17.48;;;3.00;97.30;;;;;;5053920;28;20033;-63
2024/01/26 04:08:51;;;;;;;21.65;16.20;;;2.90;97.90;;;;;;5053880;28;20032;-62
2024/01/26 04:11:16;;;;;;;23.17;15.73;;;2.90;97.80;;;;;;5053842;28;20043;-64
2024/01/26 04:13:42;;;;;;;25.52;18.00;;;2.90;97.30;;;;;;5053468;28;20471;-66
2024/01/26 04:16:08;;;;;;;21.95;15.82;;;3.00;96.70;;;;;;5053867;28;20108;-66
2024/01/26 04:18:34;;;;;;;18.25;14.05;;;3.00;97.00;;;;;;5053656;28;20025;-66
2024/01/26 04:20:59;;;;;;;20.13;15.07;;;2.90;97.40;;;;;;5052378;28;20471;-63
2024/01/26 04:23:25;;;;;;;20.10;15.55;;;2.90;97.40;;;;;;5053728;28;20021;-64
2024/01/26 04:25:51;;;;;;;19.88;13.25;;;3.00;97.50;;;;;;5053610;28;20049;-63
2024/01/26 04:28:17;;;;;;;21.88;15.02;;;2.90;97.60;;;;;;5052131;28;20032;-64
2024/01/26 04:30:43;;;;;;;23.13;15.55;;;2.90;97.60;;;;;;5053581;28;20021;-66
2024/01/26 04:33:09;;;;;;;23.02;16.17;;;2.90;97.70;;;;;;5053576;28;20029;-61
2024/01/26 04:35:35;;;;;;;21.90;15.82;;;2.80;97.90;;;;;;5053418;28;20013;-62
2024/01/26 04:38:01;;;;;;;24.88;17.95;;;2.70;98.20;;;;;;5053493;28;20078;-64
2024/01/26 04:40:26;;;;;;;28.55;18.30;;;2.70;98.70;;;;;;5053340;28;20029;-63
2024/01/26 04:42:52;;;;;;;27.30;18.70;;;2.70;98.80;;;;;;5053265;28;20100;-64
2024/01/26 04:45:18;;;;;;;28.55;20.08;;;2.60;99.80;;;;;;5053549;28;20028;-67
2024/01/26 04:47:43;;;;;;;37.45;25.67;;;2.60;99.40;;;;;;5053326;28;20028;-66
2024/01/26 04:50:10;;;;;;;25.67;19.08;;;2.70;98.60;;;;;;5053403;28;20021;-65
2024/01/26 04:52:36;;;;;;;29.20;19.85;;;2.70;98.70;;;;;;5053180;28;20387;-65
2024/01/26 04:55:02;;;;;;;29.80;20.90;;;2.70;97.60;;;;;;5053350;28;20021;-63
2024/01/26 04:57:28;;;;;;;24.35;17.27;;;2.70;97.60;;;;;;5051820;28;20368;-63
2024/01/26 04:59:53;;;;;;;29.20;20.27;;;2.60;98.20;;;;;;5054739;28;20028;-63
2024/01/26 05:02:19;;;;;;;24.38;16.75;;;2.60;97.80;;;;;;5057601;28;20144;-65
2024/01/26 05:04:45;;;;;;;24.15;17.75;;;2.60;98.30;;;;;;5057160;28;20037;-68
2024/01/26 05:07:10;;;;;;;23.27;15.77;;;2.60;98.10;;;;;;5057129;28;20029;-65
2024/01/26 05:09:36;;;;;;;27.27;19.10;;;2.60;98.60;;;;;;5057236;28;20040;-63
2024/01/26 05:12:02;;;;;;;54.28;32.53;;;2.60;99.00;;;;;;5057088;28;20024;-66
2024/01/26 05:14:28;;;;;;;38.42;25.30;;;2.70;98.60;;;;;;5057033;28;20017;-63
2024/01/26 05:16:53;;;;;;;54.70;34.70;;;2.70;98.80;;;;;;5057196;28;20091;-65
2024/01/26 05:19:19;;;;;;;47.08;29.80;;;2.60;99.30;;;;;;5056961;28;20433;-64
2024/01/26 05:21:45;;;;;;;61.20;39.42;;;2.60;99.90;;;;;;5057089;28;20075;-65
2024/01/26 05:24:10;;;;;;;60.67;37.10;;;2.60;99.90;;;;;;5056849;28;20415;-65
2024/01/26 05:26:39;;;;;;;63.60;41.75;;;2.60;99.90;;;;;;5056746;28;20032;-64
2024/01/26 05:29:06;;;;;;;56.92;36.67;;;2.50;99.90;;;;;;5056901;28;20025;-67
2024/01/26 05:31:33;;;;;;;42.22;29.17;;;2.50;99.90;;;;;;5056725;28;20055;-64
2024/01/26 05:33:59;;;;;;;35.35;26.05;;;2.60;99.00;;;;;;5056806;28;20021;-63
2024/01/26 05:36:25;;;;;;;35.78;24.35;;;2.60;98.70;;;;;;5056806;28;20040;-62
2024/01/26 05:38:50;;;;;;;31.27;22.65;;;2.60;97.90;;;;;;5056534;28;20044;-64
2024/01/26 05:41:16;;;;;;;32.47;23.10;;;2.60;98.20;;;;;;5056416;28;20033;-65
2024/01/26 05:43:42;;;;;;;28.02;20.00;;;2.60;97.50;;;;;;5056769;28;20025;-65
2024/01/26 05:46:07;;;;;;;31.05;21.70;;;2.50;98.10;;;;;;5056430;28;20478;-67
2024/01/26 05:48:33;;;;;;;25.30;18.08;;;2.50;97.80;;;;;;5056558;28;20028;-66
2024/01/26 05:50:59;;;;;;;24.17;18.27;;;2.50;98.10;;;;;;5056453;28;20364;-65
2024/01/26 05:53:24;;;;;;;28.63;20.73;;;2.50;97.80;;;;;;5056271;28;20021;-64
2024/01/26 05:55:50;;;;;;;23.55;16.50;;;2.50;97.20;;;;;;5056280;28;20021;-67
2024/01/26 05:58:16;;;;;;;24.08;17.27;;;2.40;98.00;;;;;;5056413;28;20145;-66
2024/01/26 06:00:42;;;;;;;28.42;18.20;;;2.40;97.60;;;;;;5056328;28;20079;-65
2024/01/26 06:03:08;;;;;;;25.65;18.67;;;2.30;97.70;;;;;;5054670;28;20025;-63
2024/01/26 06:05:34;;;;;;;25.05;16.50;;;2.40;97.70;;;;;;5056217;28;20037;-63
2024/01/26 06:08:00;;;;;;;23.55;17.45;;;2.40;98.40;;;;;;5056121;28;20052;-66
2024/01/26 06:10:25;;;;;;;27.77;18.25;;;2.40;98.20;;;;;;5045255;28;20108;-64
2024/01/26 06:12:51;;;;;;;21.98;16.38;;;2.40;98.00;;;;;;5039004;28;20053;-64
2024/01/26 06:15:17;;;;;;;34.88;23.48;;;2.40;98.20;;;;;;5036123;28;20025;-65
2024/01/26 06:17:43;;;;;;;30.48;23.05;;;2.40;98.00;;;;;;5035788;28;20361;-61
2024/01/26 06:20:11;;;;;;;26.02;19.70;;;2.30;99.00;;;;;;5034931;28;20034;-68
2024/01/26 06:22:39;;;;;;;30.38;20.60;;;2.30;99.30;;;;;;5034624;28;20030;-65
2024/01/26 06:25:05;;;;;;;42.90;28.67;;;2.40;99.00;;;;;;5042966;28;20044;-62
2024/01/26 06:27:31;;;;;;;30.63;22.45;;;2.50;98.30;;;;;;5053613;28;20479;-67
2024/01/26 06:29:56;;;;;;;68.93;44.75;;;2.50;99.10;;;;;;5043069;28;20025;-68
2024/01/26 06:32:22;;;;;;;48.47;33.97;;;2.50;99.00;;;;;;5054115;28;20084;-64
2024/01/26 06:34:48;;;;;;;41.03;29.25;;;2.40;99.40;;;;;;5054217;28;20021;-66
2024/01/26 06:37:14;;;;;;;39.72;26.83;;;2.40;98.90;;;;;;5055780;28;20387;-63
2024/01/26 06:39:39;;;;;;;34.70;25.15;;;2.50;98.60;;;;;;5048091;28;20395;-65
2024/01/26 06:42:05;;;;;;;37.90;27.55;;;2.50;98.00;;;;;;5035863;28;20043;-66
2024/01/26 06:44:34;;;;;;;51.60;35.22;;;2.50;97.40;;;;;;5035277;28;20444;-65
2024/01/26 06:47:00;;;;;;;40.63;28.58;;;2.60;96.80;;;;;;5036269;28;20592;-67
2024/01/26 06:49:26;;;;;;;45.95;32.83;;;2.60;97.40;;;;;;5055185;28;20468;-64
2024/01/26 06:51:52;;;;;;;50.90;35.55;;;2.60;97.60;;;;;;5055385;28;20479;-66
2024/01/26 06:54:18;;;;;;;57.47;38.03;;;2.50;97.90;;;;;;5055029;28;20032;-65
2024/01/26 06:56:44;;;;;;;38.03;27.95;;;2.50;98.30;;;;;;5055044;28;20035;-64
2024/01/26 06:59:09;;;;;;;37.17;27.30;;;2.50;98.80;;;;;;5055211;28;20029;-65
2024/01/26 07:01:35;;;;;;;56.33;38.35;;;2.50;98.50;;;;;;5055165;28;20031;-65
2024/01/26 07:04:01;;;;;;;54.97;39.13;;;2.70;97.80;;;;;;5054860;28;20045;-63
2024/01/26 07:06:26;;;;;;;50.63;34.45;;;2.70;98.20;;;;;;5053747;28;20124;-64
2024/01/26 07:08:52;;;;;;;47.30;32.97;;;2.70;98.60;;;;;;5054784;28;20066;-63
2024/01/26 07:11:20;;;;;;;51.88;36.03;;;2.80;98.90;;;;;;5054784;28;20025;-65
2024/01/26 07:13:46;;;;;;;44.47;32.60;;;2.90;98.10;;;;;;5054863;28;20410;-68
2024/01/26 07:16:11;;;;;;;53.17;36.03;;;2.90;98.30;;;;;;5053566;28;20039;-68
2024/01/26 07:18:37;;;;;;;175.18;120.90;;;3.10;98.30;;;;;;5054745;28;20479;-63
2024/01/26 07:21:07;;;;;;;102.82;73.55;;;3.10;98.80;;;;;;5054959;28;20032;-63
2024/01/26 07:23:33;;;;;;;158.50;110.45;;;3.00;99.40;;;;;;5053660;28;20503;-66
2024/01/26 07:25:59;;;;;;;89.50;64.45;;;3.10;98.50;;;;;;5053340;28;20049;-65
2024/01/26 07:28:24;;;;;;;72.90;53.03;;;3.10;98.40;;;;;;5054501;28;20021;-64
2024/01/26 07:30:50;;;;;;;68.10;48.20;;;3.30;98.10;;;;;;5040226;28;20589;-65
2024/01/26 07:33:16;;;;;;;58.70;41.72;;;3.40;97.60;;;;;;5034743;28;20025;-66
2024/01/26 07:35:41;;;;;;;60.30;43.25;;;3.50;97.20;;;;;;5034637;28;20024;-64
2024/01/26 07:38:08;;;;;;;70.53;50.88;;;3.50;96.70;;;;;;5034255;28;20376;-63
2024/01/26 07:40:33;;;;;;;90.80;60.70;;;3.40;97.70;;;;;;5034656;28;20036;-64
2024/01/26 07:42:59;;;;;;;124.63;78.28;;;3.60;98.30;;;;;;5034378;28;20017;-68
2024/01/26 07:45:25;;;;;;;92.72;62.35;;;4.00;97.30;;;;;;5036106;28;20051;-67
2024/01/26 07:47:52;;;;;;;77.45;55.28;;;4.70;95.40;;;;;;5053107;28;20032;-66
2024/01/26 07:50:18;;;;;;;189.25;132.63;;;6.10;91.50;;;;;;5043902;28;20387;-67
2024/01/26 07:52:43;;;;;;;179.50;135.02;;;8.00;68.00;;;;;;5033983;28;20037;-66
2024/01/26 07:55:09;;;;;;;163.63;121.10;;;9.40;57.10;;;;;;5032972;28;20036;-65
2024/01/26 07:57:37;;;;;;;136.50;104.93;;;10.60;54.90;;;;;;5032940;28;20068;-66
2024/01/26 08:00:05;;;;;;;120.75;96.53;;;12.00;50.50;;;;;;5033292;28;20494;-65
2024/01/26 08:02:30;;;;;;;120.53;90.80;;;13.50;46.10;;;;;;5034359;28;20031;-65
2024/01/26 08:04:56;;;;;;;98.38;78.80;;;14.60;43.30;;;;;;5033761;28;20044;-68
2024/01/26 08:07:22;;;;;;;89.28;70.72;;;15.60;41.30;;;;;;5033225;28;20454;-65
2024/01/26 08:09:49;;;;;;;80.20;66.07;;;16.50;38.90;;;;;;5033092;28;20511;-68
2024/01/26 08:12:15;;;;;;;79.15;63.38;;;17.30;37.90;;;;;;5032107;28;20021;-68
2024/01/26 08:14:40;;;;;;;62.25;53.92;;;18.10;36.60;;;;;;5032393;28;20021;-68
2024/01/26 08:17:06;;;;;;;62.40;50.80;;;18.20;34.50;;;;;;5031644;28;20072;-69
2024/01/26 08:19:32;;;;;;;80.70;66.85;;;18.60;33.70;;;;;;5032534;28;20083;-67
2024/01/26 08:21:58;;;;;;;89.93;73.95;;;18.70;33.60;;;;;;5033196;28;20028;-68
2024/01/26 08:24:24;;;;;;;75.63;66.35;;;18.90;32.50;;;;;;5033446;28;20025;-67
2024/01/26 08:26:49;;;;;;;69.38;60.60;;;19.30;32.70;;;;;;5033745;28;20095;-68
2024/01/26 08:29:16;;;;;;;70.13;62.53;;;19.50;31.60;;;;;;5033642;28;20030;-68
2024/01/26 08:31:41;;;;;;;76.65;66.63;;;19.20;31.70;;;;;;5033645;28;20017;-64
2024/01/26 08:34:07;;;;;;;78.55;67.07;;;19.80;31.90;;;;;;5033209;28;20017;-65
2024/01/26 08:36:33;;;;;;;73.68;65.63;;;20.20;30.60;;;;;;5033357;28;20491;-65
2024/01/26 08:38:58;;;;;;;69.28;61.63;;;20.20;30.60;;;;;;5033430;28;20342;-68
2024/01/26 08:41:24;;;;;;;57.83;51.55;;;20.10;31.60;;;;;;5033560;28;20079;-65
2024/01/26 08:43:50;;;;;;;51.72;46.30;;;20.60;31.00;;;;;;5033543;28;20026;-66
2024/01/26 08:46:16;;;;;;;49.38;44.00;;;20.90;30.70;;;;;;5033371;28;20062;-65
2024/01/26 08:48:42;;;;;;;55.72;48.88;;;21.20;30.00;;;;;;5033298;28;20103;-67
2024/01/26 08:51:07;;;;;;;59.90;53.33;;;21.00;29.90;;;;;;5032097;28;20057;-67
2024/01/26 08:53:33;;;;;;;58.70;52.35;;;20.30;30.70;;;;;;5031971;28;20021;-66
2024/01/26 08:56:02;;;;;;;48.35;42.55;;;20.30;31.00;;;;;;5033272;28;20033;-65
2024/01/26 08:58:28;;;;;;;57.65;51.20;;;20.30;29.80;;;;;;5033353;28;20040;-64
2024/01/26 09:00:53;;;;;;;68.97;58.63;;;20.10;30.80;;;;;;5033004;28;20021;-67
2024/01/26 09:03:20;;;;;;;56.42;49.22;;;19.50;31.20;;;;;;5043166;28;20107;-64
2024/01/26 09:05:45;;;;;;;56.63;49.83;;;19.00;32.90;;;;;;5051965;28;20028;-65
2024/01/26 09:08:11;;;;;;;47.78;41.83;;;18.40;33.50;;;;;;5053024;28;20025;-65
2024/01/26 09:10:37;;;;;;;40.60;35.92;;;18.00;35.30;;;;;;5052776;28;20044;-64
2024/01/26 09:13:03;;;;;;;35.20;31.25;;;18.10;35.90;;;;;;5053093;28;20017;-66
2024/01/26 09:15:29;;;;;;;30.80;24.67;;;18.20;34.90;;;;;;5047827;28;20040;-66
2024/01/26 09:17:55;;;;;;;27.13;24.23;;;18.20;34.70;;;;;;5038536;28;20068;-67
2024/01/26 09:20:20;;;;;;;56.35;44.80;;;17.90;35.50;;;;;;5033036;28;20423;-64
2024/01/26 09:22:46;;;;;;;41.03;35.55;;;17.50;34.90;;;;;;5033010;28;20022;-67
2024/01/26 09:25:12;;;;;;;38.80;34.63;;;17.20;36.30;;;;;;5032818;28;20048;-66
2024/01/26 09:27:38;;;;;;;38.20;33.65;;;17.20;36.70;;;;;;5033018;28;20022;-63
2024/01/26 09:30:04;;;;;;;36.40;32.67;;;17.30;35.80;;;;;;5031629;28;20022;-64
2024/01/26 09:32:30;;;;;;;38.40;34.40;;;17.30;35.90;;;;;;5032225;28;20460;-68
2024/01/26 09:34:55;;;;;;;39.67;35.47;;;17.20;36.50;;;;;;5031372;28;20043;-64
2024/01/26 09:37:21;;;;;;;49.33;41.20;;;17.20;36.50;;;;;;5033062;28;20025;-65
2024/01/26 09:39:47;;;;;;;42.15;37.58;;;16.90;36.30;;;;;;5032743;28;20033;-67
2024/01/26 09:42:13;;;;;;;43.85;39.22;;;16.70;37.50;;;;;;5030921;28;20022;-64
2024/01/26 09:44:39;;;;;;;42.08;37.28;;;16.80;37.80;;;;;;5034922;28;20064;-64
2024/01/26 09:47:10;;;;;;;41.40;37.08;;;16.90;37.60;;;;;;5048795;28;20031;-66
2024/01/26 09:49:38;;;;;;;36.50;32.70;;;17.00;38.00;;;;;;5056408;28;20036;-66
2024/01/26 09:52:08;;;;;;;40.03;35.65;;;17.30;37.60;;;;;;5056478;28;20044;-62
2024/01/26 09:54:34;;;;;;;35.38;31.98;;;17.30;36.20;;;;;;5055339;28;20021;-66
2024/01/26 09:57:00;;;;;;;31.73;28.63;;;17.10;37.50;;;;;;5054589;28;20032;-63
2024/01/26 09:59:26;;;;;;;34.30;30.73;;;17.40;36.40;;;;;;5053657;28;20025;-62
2024/01/26 10:01:52;;;;;;;32.97;29.38;;;17.60;36.00;;;;;;5054993;28;20121;-67
2024/01/26 10:04:17;;;;;;;29.10;26.10;;;17.80;35.40;;;;;;5055760;28;20049;-63
2024/01/26 10:06:45;;;;;;;27.25;24.13;;;17.80;35.80;;;;;;5056277;28;20390;-66
2024/01/26 10:09:12;;;;;;;25.48;22.80;;;17.80;34.70;;;;;;5055378;28;20032;-66
2024/01/26 10:11:38;;;;;;;23.45;21.05;;;17.90;34.60;;;;;;5056011;28;20025;-67
2024/01/26 10:14:04;;;;;;;21.58;19.38;;;18.00;34.80;;;;;;5055835;28;20485;-64
2024/01/26 10:16:29;;;;;;;20.58;18.42;;;18.10;34.10;;;;;;5047464;28;20438;-66
2024/01/26 10:18:55;;;;;;;17.90;16.10;;;18.40;33.20;;;;;;5034411;28;20040;-64
2024/01/26 10:21:22;;;;;;;34.42;30.75;;;18.30;33.40;;;;;;5036018;28;20100;-66
2024/01/26 10:23:48;;;;;;;28.30;25.42;;;18.30;33.30;;;;;;5035985;28;20032;-66
2024/01/26 10:26:14;;;;;;;24.52;22.02;;;18.10;33.70;;;;;;5035780;28;20021;-65
2024/01/26 10:28:40;;;;;;;21.83;19.52;;;18.20;32.60;;;;;;5035892;28;20018;-64
2024/01/26 10:31:05;;;;;;;17.13;14.10;;;18.30;32.70;;;;;;5035546;28;20021;-64
2024/01/26 10:33:32;;;;;;;18.15;16.35;;;18.30;30.70;;;;;;5035548;28;20096;-66
2024/01/26 10:36:00;;;;;;;17.48;15.65;;;18.30;32.60;;;;;;5035672;28;20013;-66
2024/01/26 10:38:30;;;;;;;15.95;14.27;;;18.30;32.20;;;;;;5035598;28;20033;-64
2024/01/26 10:41:05;;;;;;;14.48;12.88;;;18.40;31.40;;;;;;5034290;28;20021;-64
2024/01/26 10:43:32;;;;;;;15.30;13.80;;;18.10;31.10;;;;;;5035567;28;20021;-66
2024/01/26 10:45:59;;;;;;;22.85;20.45;;;18.10;30.80;;;;;;5035313;28;20052;-67
2024/01/26 10:48:25;;;;;;;20.08;17.92;;;17.90;32.00;;;;;;5035490;28;20083;-63
2024/01/26 10:50:52;;;;;;;16.80;15.00;;;17.70;31.90;;;;;;5035439;28;20018;-65
2024/01/26 10:53:20;;;;;;;12.00;10.80;;;17.70;32.90;;;;;;5035473;28;20053;-65
2024/01/26 10:55:47;;;;;;;15.55;12.68;;;17.70;31.50;;;;;;5033868;28;20395;-65
2024/01/26 10:58:13;;;;;;;13.05;11.75;;;17.80;32.10;;;;;;5033949;28;20056;-67
2024/01/26 11:00:39;;;;;;;13.18;10.82;;;17.90;32.70;;;;;;5035059;28;20029;-65
2024/01/26 11:03:05;;;;;;;11.35;10.10;;;18.10;32.20;;;;;;5035154;28;20096;-67
2024/01/26 11:05:31;;;;;;;11.95;10.65;;;18.20;31.90;;;;;;5033757;28;20128;-65
2024/01/26 11:08:01;;;;;;;11.45;10.25;;;18.50;31.60;;;;;;5033715;28;20033;-65
2024/01/26 11:10:28;;;;;;;12.07;10.95;;;18.70;30.90;;;;;;5035066;28;20040;-67
2024/01/26 11:13:05;;;;;;;14.32;12.93;;;18.70;31.00;;;;;;5035169;28;20033;-67
2024/01/26 11:15:31;;;;;;;12.43;11.20;;;18.70;31.30;;;;;;5034677;28;20045;-66
2024/01/26 11:17:58;;;;;;;13.52;12.23;;;18.90;30.40;;;;;;5034975;28;20065;-65
2024/01/26 11:20:30;;;;;;;18.70;16.58;;;18.60;30.50;;;;;;5034829;28;20155;-63
2024/01/26 11:23:00;;;;;;;17.17;15.47;;;18.50;31.00;;;;;;5033844;28;20434;-63
2024/01/26 11:25:26;;;;;;;14.25;12.75;;;18.50;30.50;;;;;;5034802;28;20025;-66
2024/01/26 11:27:59;;;;;;;11.80;10.60;;;18.30;31.80;;;;;;5034554;28;20472;-66
2024/01/26 11:30:26;;;;;;;9.82;8.82;;;18.40;30.70;;;;;;5034613;28;20052;-65
2024/01/26 11:32:52;;;;;;;10.02;9.07;;;18.40;30.80;;;;;;5034573;28;20392;-64
2024/01/26 11:35:18;;;;;;;9.18;8.38;;;18.50;30.80;;;;;;5034580;28;20029;-65
2024/01/26 11:37:45;;;;;;;9.00;7.93;;;18.40;30.90;;;;;;5034453;28;20101;-65
2024/01/26 11:40:11;;;;;;;9.23;7.72;;;18.20;31.60;;;;;;5034484;28;20053;-63
2024/01/26 11:42:37;;;;;;;8.35;7.55;;;18.20;31.70;;;;;;5034236;28;20095;-65
2024/01/26 11:45:08;;;;;;;8.50;7.68;;;18.30;31.40;;;;;;5032865;28;20488;-65
2024/01/26 11:47:40;;;;;;;10.18;8.10;;;18.60;31.60;;;;;;5034337;28;20029;-64
2024/01/26 11:50:10;;;;;;;10.60;7.65;;;18.80;30.40;;;;;;5033057;28;20025;-63
2024/01/26 11:52:37;;;;;;;7.93;7.13;;;18.30;30.20;;;;;;5034248;28;20399;-65
2024/01/26 11:55:05;;;;;;;7.40;6.50;;;18.20;31.70;;;;;;5034226;28;20021;-64
2024/01/26 11:57:35;;;;;;;6.05;5.45;;;18.20;32.20;;;;;;5034058;28;20026;-67
2024/01/26 12:00:12;;;;;;;6.80;5.20;;;18.30;30.80;;;;;;5034112;28;20033;-63
2024/01/26 12:02:38;;;;;;;8.25;6.35;;;18.40;31.30;;;;;;5034097;28;20100;-65
2024/01/26 12:05:04;;;;;;;8.98;8.00;;;18.40;30.90;;;;;;5033645;28;20076;-63
2024/01/26 12:07:30;;;;;;;8.85;6.50;;;18.20;30.80;;;;;;5033931;28;20105;-65
2024/01/26 12:09:56;;;;;;;8.88;7.38;;;18.20;31.10;;;;;;5033477;28;20523;-65
2024/01/26 12:12:22;;;;;;;9.75;8.75;;;18.40;30.80;;;;;;5033661;28;20376;-64
2024/01/26 12:14:48;;;;;;;9.27;8.00;;;18.40;31.10;;;;;;5033897;28;20026;-65
2024/01/26 12:17:13;;;;;;;10.70;9.48;;;18.50;31.70;;;;;;5033801;28;20557;-65
2024/01/26 12:19:39;;;;;;;14.68;11.25;;;18.40;31.40;;;;;;5033677;28;20029;-65
2024/01/26 12:22:07;;;;;;;15.93;13.80;;;18.50;31.20;;;;;;5033713;28;20377;-65
2024/01/26 12:24:36;;;;;;;12.20;9.90;;;18.50;31.60;;;;;;5033632;28;20021;-64
2024/01/26 12:27:02;;;;;;;9.70;8.43;;;18.70;31.20;;;;;;5033388;28;20028;-66
2024/01/26 12:29:31;;;;;;;9.90;7.63;;;18.70;30.80;;;;;;5033631;28;20034;-63